sensor_id;sensor_type;location;lat;lon;timestamp;pressure;altitude;pressure_sealevel;temperature;humidity
38900;BME280;24660;43.238;26.576;2023-01-23T00:00:20;100378.91;;;7.98;100.00
38900;BME280;24660;43.238;26.576;2023-01-23T00:02:45;100379.75;;;7.98;100.00
38900;BME280;24660;43.238;26.576;2023-01-23T00:05:10;100385.09;;;7.98;100.00
38900;BME280;24660;43.238;26.576;2023-01-23T00:07:36;100385.63;;;8.05;100.00
38900;BME280;24660;43.238;26.576;2023-01-23T00:10:01;100384.03;;;8.01;100.00
38900;BME280;24660;43.238;26.576;2023-01-23T00:12:26;100388.97;;;8.09;100.00
38900;BME280;24660;43.238;26.576;2023-01-23T00:14:51;100385.44;;;8.08;100.00
38900;BME280;24660;43.238;26.576;2023-01-23T00:17:17;100389.72;;;8.11;100.00
38900;BME280;24660;43.238;26.576;2023-01-23T00:19:42;100384.03;;;8.01;100.00
38900;BME280;24660;43.238;26.576;2023-01-23T00:22:07;100394.88;;;7.98;100.00
38900;BME280;24660;43.238;26.576;2023-01-23T00:24:33;100397.72;;;7.95;100.00
38900;BME280;24660;43.238;26.576;2023-01-23T00:26:58;100401.91;;;7.99;100.00
38900;BME280;24660;43.238;26.576;2023-01-23T00:29:23;100398.66;;;7.94;100.00
38900;BME280;24660;43.238;26.576;2023-01-23T00:31:48;100406.72;;;7.92;100.00
38900;BME280;24660;43.238;26.576;2023-01-23T00:34:14;100408.72;;;7.89;100.00
38900;BME280;24660;43.238;26.576;2023-01-23T00:36:40;100404.28;;;7.88;100.00
38900;BME280;24660;43.238;26.576;2023-01-23T00:39:08;100417.44;;;7.75;100.00
38900;BME280;24660;43.238;26.576;2023-01-23T00:41:35;100422.50;;;7.80;100.00
38900;BME280;24660;43.238;26.576;2023-01-23T00:44:00;100423.63;;;7.76;100.00
38900;BME280;24660;43.238;26.576;2023-01-23T00:46:26;100421.72;;;7.78;100.00
38900;BME280;24660;43.238;26.576;2023-01-23T00:48:51;100430.78;;;7.73;100.00
38900;BME280;24660;43.238;26.576;2023-01-23T00:51:16;100425.97;;;7.64;100.00
38900;BME280;24660;43.238;26.576;2023-01-23T00:53:42;100418.22;;;7.60;100.00
38900;BME280;24660;43.238;26.576;2023-01-23T00:56:07;100421.28;;;7.69;100.00
38900;BME280;24660;43.238;26.576;2023-01-23T00:58:33;100426.16;;;7.61;100.00
38900;BME280;24660;43.238;26.576;2023-01-23T01:00:58;100416.47;;;7.60;100.00
38900;BME280;24660;43.238;26.576;2023-01-23T01:03:24;100427.78;;;7.64;100.00
38900;BME280;24660;43.238;26.576;2023-01-23T01:05:49;100419.16;;;7.59;100.00
38900;BME280;24660;43.238;26.576;2023-01-23T01:08:15;100425.44;;;7.58;100.00
38900;BME280;24660;43.238;26.576;2023-01-23T01:10:40;100417.53;;;7.56;100.00
38900;BME280;24660;43.238;26.576;2023-01-23T01:13:06;100428.09;;;7.58;100.00
38900;BME280;24660;43.238;26.576;2023-01-23T01:15:31;100429.81;;;7.59;100.00
38900;BME280;24660;43.238;26.576;2023-01-23T01:17:57;100430.47;;;7.47;100.00
38900;BME280;24660;43.238;26.576;2023-01-23T01:20:23;100418.81;;;7.49;100.00
38900;BME280;24660;43.238;26.576;2023-01-23T01:22:50;100439.06;;;7.52;100.00
38900;BME280;24660;43.238;26.576;2023-01-23T01:25:15;100432.47;;;7.59;100.00
38900;BME280;24660;43.238;26.576;2023-01-23T01:27:41;100430.84;;;7.56;100.00
38900;BME280;24660;43.238;26.576;2023-01-23T01:30:06;100428.19;;;7.56;100.00
38900;BME280;24660;43.238;26.576;2023-01-23T01:32:35;100431.00;;;7.53;100.00
38900;BME280;24660;43.238;26.576;2023-01-23T01:35:00;100428.69;;;7.47;100.00
38900;BME280;24660;43.238;26.576;2023-01-23T01:37:25;100420.19;;;7.56;100.00
38900;BME280;24660;43.238;26.576;2023-01-23T01:39:51;100424.66;;;7.56;100.00
38900;BME280;24660;43.238;26.576;2023-01-23T01:42:16;100428.72;;;7.63;100.00
38900;BME280;24660;43.238;26.576;2023-01-23T01:47:22;100418.97;;;7.46;100.00
38900;BME280;24660;43.238;26.576;2023-01-23T01:49:47;100438.38;;;7.48;100.00
38900;BME280;24660;43.238;26.576;2023-01-23T01:52:13;100428.97;;;7.41;100.00
38900;BME280;24660;43.238;26.576;2023-01-23T01:54:43;100435.84;;;7.45;100.00
38900;BME280;24660;43.238;26.576;2023-01-23T01:57:15;100435.06;;;7.43;100.00
38900;BME280;24660;43.238;26.576;2023-01-23T01:59:44;100432.59;;;7.40;100.00
38900;BME280;24660;43.238;26.576;2023-01-23T02:02:13;100431.97;;;7.35;100.00
38900;BME280;24660;43.238;26.576;2023-01-23T02:04:41;100435.25;;;7.40;100.00
38900;BME280;24660;43.238;26.576;2023-01-23T02:07:10;100430.09;;;7.37;100.00
38900;BME280;24660;43.238;26.576;2023-01-23T02:09:37;100436.03;;;7.42;100.00
38900;BME280;24660;43.238;26.576;2023-01-23T02:12:02;100435.06;;;7.43;100.00
38900;BME280;24660;43.238;26.576;2023-01-23T02:14:28;100438.50;;;7.45;100.00
38900;BME280;24660;43.238;26.576;2023-01-23T02:16:54;100441.13;;;7.47;100.00
38900;BME280;24660;43.238;26.576;2023-01-23T02:19:33;100441.25;;;7.43;100.00
38900;BME280;24660;43.238;26.576;2023-01-23T02:22:06;100437.59;;;7.29;100.00
38900;BME280;24660;43.238;26.576;2023-01-23T02:24:35;100441.50;;;7.39;100.00
38900;BME280;24660;43.238;26.576;2023-01-23T02:27:03;100441.19;;;7.45;100.00
38900;BME280;24660;43.238;26.576;2023-01-23T02:29:38;100443.41;;;7.37;100.00
38900;BME280;24660;43.238;26.576;2023-01-23T02:32:03;100439.63;;;7.41;100.00
38900;BME280;24660;43.238;26.576;2023-01-23T02:34:29;100434.38;;;7.39;100.00
38900;BME280;24660;43.238;26.576;2023-01-23T02:36:54;100436.75;;;7.28;100.00
38900;BME280;24660;43.238;26.576;2023-01-23T02:39:20;100449.34;;;7.25;100.00
38900;BME280;24660;43.238;26.576;2023-01-23T02:41:46;100448.63;;;7.21;100.00
38900;BME280;24660;43.238;26.576;2023-01-23T02:44:14;100441.53;;;7.22;100.00
38900;BME280;24660;43.238;26.576;2023-01-23T02:46:40;100450.03;;;7.28;100.00
38900;BME280;24660;43.238;26.576;2023-01-23T02:49:06;100453.88;;;7.23;100.00
38900;BME280;24660;43.238;26.576;2023-01-23T02:51:31;100443.31;;;7.21;100.00
38900;BME280;24660;43.238;26.576;2023-01-23T02:53:57;100453.19;;;7.19;100.00
38900;BME280;24660;43.238;26.576;2023-01-23T02:56:22;100457.63;;;7.19;100.00
38900;BME280;24660;43.238;26.576;2023-01-23T02:58:47;100467.88;;;7.26;100.00
38900;BME280;24660;43.238;26.576;2023-01-23T03:01:28;100466.53;;;7.18;100.00
38900;BME280;24660;43.238;26.576;2023-01-23T03:03:53;100474.22;;;7.24;100.00
38900;BME280;24660;43.238;26.576;2023-01-23T03:06:20;100476.38;;;7.15;100.00
38900;BME280;24660;43.238;26.576;2023-01-23T03:08:45;100470.13;;;7.17;100.00
38900;BME280;24660;43.238;26.576;2023-01-23T03:11:14;100472.31;;;7.08;100.00
38900;BME280;24660;43.238;26.576;2023-01-23T03:13:40;100472.94;;;7.13;100.00
38900;BME280;24660;43.238;26.576;2023-01-23T03:16:05;100467.53;;;7.15;100.00
38900;BME280;24660;43.238;26.576;2023-01-23T03:18:31;100472.31;;;7.08;100.00
38900;BME280;24660;43.238;26.576;2023-01-23T03:21:01;100477.66;;;7.08;100.00
38900;BME280;24660;43.238;26.576;2023-01-23T03:23:26;100480.31;;;7.08;100.00
38900;BME280;24660;43.238;26.576;2023-01-23T03:25:51;100489.22;;;7.07;100.00
38900;BME280;24660;43.238;26.576;2023-01-23T03:28:23;100487.41;;;7.08;100.00
38900;BME280;24660;43.238;26.576;2023-01-23T03:31:03;100485.84;;;7.04;100.00
38900;BME280;24660;43.238;26.576;2023-01-23T03:33:29;100482.38;;;7.02;100.00
38900;BME280;24660;43.238;26.576;2023-01-23T03:35:55;100491.22;;;7.02;100.00
38900;BME280;24660;43.238;26.576;2023-01-23T03:38:20;100488.53;;;7.04;100.00
38900;BME280;24660;43.238;26.576;2023-01-23T03:40:48;100492.81;;;7.06;100.00
38900;BME280;24660;43.238;26.576;2023-01-23T03:43:30;100493.88;;;7.02;100.00
38900;BME280;24660;43.238;26.576;2023-01-23T03:45:56;100488.81;;;6.98;100.00
38900;BME280;24660;43.238;26.576;2023-01-23T03:48:21;100491.09;;;7.05;100.00
38900;BME280;24660;43.238;26.576;2023-01-23T03:50:47;100487.44;;;6.89;100.00
38900;BME280;24660;43.238;26.576;2023-01-23T03:53:12;100487.31;;;6.92;100.00
38900;BME280;24660;43.238;26.576;2023-01-23T03:55:38;100486.47;;;6.92;100.00
38900;BME280;24660;43.238;26.576;2023-01-23T03:58:03;100488.19;;;6.93;100.00
38900;BME280;24660;43.238;26.576;2023-01-23T04:00:28;100487.31;;;6.92;100.00
38900;BME280;24660;43.238;26.576;2023-01-23T04:02:54;100490.44;;;7.00;100.00
38900;BME280;24660;43.238;26.576;2023-01-23T04:05:19;100487.63;;;7.03;100.00
38900;BME280;24660;43.238;26.576;2023-01-23T04:07:44;100490.06;;;6.91;100.00
38900;BME280;24660;43.238;26.576;2023-01-23T04:10:09;100487.22;;;6.76;100.00
38900;BME280;24660;43.238;26.576;2023-01-23T04:12:35;100492.88;;;6.69;100.00
38900;BME280;24660;43.238;26.576;2023-01-23T04:15:00;100492.09;;;6.67;100.00
38900;BME280;24660;43.238;26.576;2023-01-23T04:17:25;100499.91;;;6.70;100.00
38900;BME280;24660;43.238;26.576;2023-01-23T04:19:51;100495.47;;;6.70;100.00
38900;BME280;24660;43.238;26.576;2023-01-23T04:22:16;100504.38;;;6.69;100.00
38900;BME280;24660;43.238;26.576;2023-01-23T04:24:41;100504.28;;;6.71;100.00
38900;BME280;24660;43.238;26.576;2023-01-23T04:27:07;100503.66;;;6.66;100.00
38900;BME280;24660;43.238;26.576;2023-01-23T04:29:32;100506.16;;;6.69;100.00
38900;BME280;24660;43.238;26.576;2023-01-23T04:31:57;100508.31;;;6.61;100.00
38900;BME280;24660;43.238;26.576;2023-01-23T04:34:22;100512.25;;;6.71;100.00
38900;BME280;24660;43.238;26.576;2023-01-23T04:36:48;100521.59;;;6.61;100.00
38900;BME280;24660;43.238;26.576;2023-01-23T04:39:13;100527.84;;;6.60;100.00
38900;BME280;24660;43.238;26.576;2023-01-23T04:41:38;100520.34;;;6.50;100.00
38900;BME280;24660;43.238;26.576;2023-01-23T04:44:04;100537.06;;;6.52;100.00
38900;BME280;24660;43.238;26.576;2023-01-23T04:46:47;100529.34;;;6.46;100.00
38900;BME280;24660;43.238;26.576;2023-01-23T04:49:14;100518.88;;;6.43;100.00
38900;BME280;24660;43.238;26.576;2023-01-23T04:51:39;100529.31;;;6.48;100.00
38900;BME280;24660;43.238;26.576;2023-01-23T04:54:04;100532.44;;;6.56;100.00
38900;BME280;24660;43.238;26.576;2023-01-23T04:56:30;100533.38;;;6.55;100.00
38900;BME280;24660;43.238;26.576;2023-01-23T04:58:55;100538.06;;;6.50;100.00
38900;BME280;24660;43.238;26.576;2023-01-23T05:01:20;100532.53;;;6.54;100.00
38900;BME280;24660;43.238;26.576;2023-01-23T05:03:48;100536.13;;;6.53;100.00
38900;BME280;24660;43.238;26.576;2023-01-23T05:06:13;100538.13;;;6.48;100.00
38900;BME280;24660;43.238;26.576;2023-01-23T05:08:38;100544.22;;;6.50;100.00
38900;BME280;24660;43.238;26.576;2023-01-23T05:11:03;100544.09;;;6.53;100.00
38900;BME280;24660;43.238;26.576;2023-01-23T05:13:29;100537.91;;;6.53;100.00
38900;BME280;24660;43.238;26.576;2023-01-23T05:15:55;100552.41;;;6.46;100.00
38900;BME280;24660;43.238;26.576;2023-01-23T05:18:21;100548.94;;;6.44;100.00
38900;BME280;24660;43.238;26.576;2023-01-23T05:20:46;100552.47;;;6.44;100.00
38900;BME280;24660;43.238;26.576;2023-01-23T05:23:11;100561.97;;;6.50;100.00
38900;BME280;24660;43.238;26.576;2023-01-23T05:25:37;100551.81;;;6.39;100.00
38900;BME280;24660;43.238;26.576;2023-01-23T05:28:02;100556.44;;;6.36;100.00
38900;BME280;24660;43.238;26.576;2023-01-23T05:30:28;100559.88;;;6.38;100.00
38900;BME280;24660;43.238;26.576;2023-01-23T05:32:53;100559.28;;;6.31;100.00
38900;BME280;24660;43.238;26.576;2023-01-23T05:35:18;100556.84;;;6.27;100.00
38900;BME280;24660;43.238;26.576;2023-01-23T05:37:49;100560.94;;;6.34;100.00
38900;BME280;24660;43.238;26.576;2023-01-23T05:40:14;100564.59;;;6.31;100.00
38900;BME280;24660;43.238;26.576;2023-01-23T05:43:25;100574.34;;;6.31;100.00
38900;BME280;24660;43.238;26.576;2023-01-23T05:45:50;100574.41;;;6.29;100.00
38900;BME280;24660;43.238;26.576;2023-01-23T05:48:16;100586.66;;;6.13;100.00
38900;BME280;24660;43.238;26.576;2023-01-23T05:50:41;100585.91;;;6.30;100.00
38900;BME280;24660;43.238;26.576;2023-01-23T05:53:06;100597.06;;;6.17;100.00
38900;BME280;24660;43.238;26.576;2023-01-23T05:55:33;100598.84;;;6.17;100.00
38900;BME280;24660;43.238;26.576;2023-01-23T05:57:58;100599.13;;;6.11;100.00
38900;BME280;24660;43.238;26.576;2023-01-23T06:00:23;100616.94;;;6.09;100.00
38900;BME280;24660;43.238;26.576;2023-01-23T06:02:49;100604.97;;;5.99;100.00
38900;BME280;24660;43.238;26.576;2023-01-23T06:05:14;100632.09;;;6.05;100.00
38900;BME280;24660;43.238;26.576;2023-01-23T06:07:39;100620.91;;;5.99;100.00
38900;BME280;24660;43.238;26.576;2023-01-23T06:10:05;100631.53;;;5.99;100.00
38900;BME280;24660;43.238;26.576;2023-01-23T06:12:31;100629.06;;;5.94;100.00
38900;BME280;24660;43.238;26.576;2023-01-23T06:14:56;100629.78;;;5.98;100.00
38900;BME280;24660;43.238;26.576;2023-01-23T06:17:21;100632.72;;;5.91;100.00
38900;BME280;24660;43.238;26.576;2023-01-23T06:19:47;100640.03;;;5.85;100.00
38900;BME280;24660;43.238;26.576;2023-01-23T06:22:12;100649.72;;;5.86;100.00
38900;BME280;24660;43.238;26.576;2023-01-23T06:24:38;100651.88;;;5.76;100.00
38900;BME280;24660;43.238;26.576;2023-01-23T06:27:03;100655.97;;;5.85;100.00
38900;BME280;24660;43.238;26.576;2023-01-23T06:29:32;100658.97;;;5.76;100.00
38900;BME280;24660;43.238;26.576;2023-01-23T06:31:58;100663.19;;;5.81;100.00
38900;BME280;24660;43.238;26.576;2023-01-23T06:34:23;100661.06;;;5.89;100.00
38900;BME280;24660;43.238;26.576;2023-01-23T06:36:48;100665.97;;;5.78;100.00
38900;BME280;24660;43.238;26.576;2023-01-23T06:39:14;100662.84;;;5.69;100.00
38900;BME280;24660;43.238;26.576;2023-01-23T06:41:41;100673.25;;;5.73;100.00
38900;BME280;24660;43.238;26.576;2023-01-23T06:44:07;100683.13;;;5.70;100.00
38900;BME280;24660;43.238;26.576;2023-01-23T06:46:33;100685.47;;;5.77;100.00
38900;BME280;24660;43.238;26.576;2023-01-23T06:48:59;100689.03;;;5.76;100.00
38900;BME280;24660;43.238;26.576;2023-01-23T06:51:24;100686.50;;;5.73;100.00
38900;BME280;24660;43.238;26.576;2023-01-23T06:53:49;100685.66;;;5.73;100.00
38900;BME280;24660;43.238;26.576;2023-01-23T06:56:15;100676.22;;;5.65;100.00
38900;BME280;24660;43.238;26.576;2023-01-23T06:58:42;100687.56;;;5.69;100.00
38900;BME280;24660;43.238;26.576;2023-01-23T07:01:09;100684.66;;;5.75;100.00
38900;BME280;24660;43.238;26.576;2023-01-23T07:03:35;100689.25;;;5.93;100.00
38900;BME280;24660;43.238;26.576;2023-01-23T07:06:02;100699.00;;;5.93;100.00
38900;BME280;24660;43.238;26.576;2023-01-23T07:08:30;100699.66;;;5.98;100.00
38900;BME280;24660;43.238;26.576;2023-01-23T07:10:56;100698.19;;;5.91;100.00
38900;BME280;24660;43.238;26.576;2023-01-23T07:13:21;100691.66;;;5.78;100.00
38900;BME280;24660;43.238;26.576;2023-01-23T07:15:46;100693.22;;;5.60;100.00
38900;BME280;24660;43.238;26.576;2023-01-23T07:18:12;100695.34;;;5.52;100.00
38900;BME280;24660;43.238;26.576;2023-01-23T07:20:37;100698.59;;;5.58;100.00
38900;BME280;24660;43.238;26.576;2023-01-23T07:23:02;100704.47;;;5.66;100.00
38900;BME280;24660;43.238;26.576;2023-01-23T07:25:27;100705.56;;;5.61;100.00
38900;BME280;24660;43.238;26.576;2023-01-23T07:27:54;100698.66;;;5.57;100.00
38900;BME280;24660;43.238;26.576;2023-01-23T07:30:19;100702.81;;;5.64;100.00
38900;BME280;24660;43.238;26.576;2023-01-23T07:32:45;100699.41;;;5.60;100.00
38900;BME280;24660;43.238;26.576;2023-01-23T07:35:10;100692.94;;;5.68;100.00
38900;BME280;24660;43.238;26.576;2023-01-23T07:37:35;100691.72;;;5.54;100.00
38900;BME280;24660;43.238;26.576;2023-01-23T07:40:01;100696.44;;;5.46;100.00
38900;BME280;24660;43.238;26.576;2023-01-23T07:42:26;100695.75;;;5.63;100.00
38900;BME280;24660;43.238;26.576;2023-01-23T07:44:51;100707.28;;;5.62;100.00
38900;BME280;24660;43.238;26.576;2023-01-23T07:47:17;100691.03;;;5.49;100.00
38900;BME280;24660;43.238;26.576;2023-01-23T07:49:42;100704.91;;;5.56;100.00
38900;BME280;24660;43.238;26.576;2023-01-23T07:52:07;100700.81;;;5.47;100.00
38900;BME280;24660;43.238;26.576;2023-01-23T07:54:33;100704.47;;;5.45;100.00
38900;BME280;24660;43.238;26.576;2023-01-23T07:56:58;100707.91;;;5.47;100.00
38900;BME280;24660;43.238;26.576;2023-01-23T07:59:23;100703.19;;;5.55;100.00
38900;BME280;24660;43.238;26.576;2023-01-23T08:01:49;100703.66;;;5.43;100.00
38900;BME280;24660;43.238;26.576;2023-01-23T08:04:16;100707.03;;;5.46;100.00
38900;BME280;24660;43.238;26.576;2023-01-23T08:06:41;100697.22;;;5.50;100.00
38900;BME280;24660;43.238;26.576;2023-01-23T08:09:07;100703.53;;;5.46;100.00
38900;BME280;24660;43.238;26.576;2023-01-23T08:11:32;100712.59;;;5.62;100.00
38900;BME280;24660;43.238;26.576;2023-01-23T08:13:57;100704.53;;;5.65;100.00
38900;BME280;24660;43.238;26.576;2023-01-23T08:16:23;100688.31;;;5.51;100.00
38900;BME280;24660;43.238;26.576;2023-01-23T08:18:48;100717.50;;;5.51;100.00
38900;BME280;24660;43.238;26.576;2023-01-23T08:21:14;100713.13;;;5.50;100.00
38900;BME280;24660;43.238;26.576;2023-01-23T08:23:39;100716.78;;;5.46;100.00
38900;BME280;24660;43.238;26.576;2023-01-23T08:26:05;100716.66;;;5.49;100.00
38900;BME280;24660;43.238;26.576;2023-01-23T08:28:32;100716.50;;;5.53;100.00
38900;BME280;24660;43.238;26.576;2023-01-23T08:31:01;100711.88;;;5.58;100.00
38900;BME280;24660;43.238;26.576;2023-01-23T08:33:28;100717.56;;;5.49;100.00
38900;BME280;24660;43.238;26.576;2023-01-23T08:35:57;100720.38;;;5.45;100.00
38900;BME280;24660;43.238;26.576;2023-01-23T08:38:23;100727.97;;;5.54;100.00
38900;BME280;24660;43.238;26.576;2023-01-23T08:40:49;100728.03;;;5.52;100.00
38900;BME280;24660;43.238;26.576;2023-01-23T08:43:15;100729.03;;;5.50;100.00
38900;BME280;24660;43.238;26.576;2023-01-23T08:45:41;100723.50;;;5.32;100.00
38900;BME280;24660;43.238;26.576;2023-01-23T08:48:07;100719.63;;;5.41;100.00
38900;BME280;24660;43.238;26.576;2023-01-23T08:50:32;100722.91;;;5.48;100.00
38900;BME280;24660;43.238;26.576;2023-01-23T08:52:58;100721.88;;;5.52;100.00
38900;BME280;24660;43.238;26.576;2023-01-23T08:55:35;100724.84;;;5.66;100.00
38900;BME280;24660;43.238;26.576;2023-01-23T08:58:03;100711.34;;;5.49;100.00
38900;BME280;24660;43.238;26.576;2023-01-23T09:00:28;100712.84;;;5.56;100.00
38900;BME280;24660;43.238;26.576;2023-01-23T09:02:54;100701.59;;;5.51;100.00
38900;BME280;24660;43.238;26.576;2023-01-23T09:05:19;100700.81;;;5.47;100.00
38900;BME280;24660;43.238;26.576;2023-01-23T09:07:45;100701.19;;;5.38;100.00
38900;BME280;24660;43.238;26.576;2023-01-23T09:10:11;100697.31;;;5.25;100.00
38900;BME280;24660;43.238;26.576;2023-01-23T09:12:37;100698.22;;;5.24;100.00
38900;BME280;24660;43.238;26.576;2023-01-23T09:15:02;100697.91;;;5.31;100.00
38900;BME280;24660;43.238;26.576;2023-01-23T09:17:27;100699.34;;;5.40;100.00
38900;BME280;24660;43.238;26.576;2023-01-23T09:19:53;100691.06;;;5.48;100.00
38900;BME280;24660;43.238;26.576;2023-01-23T09:22:18;100689.66;;;5.39;100.00
38900;BME280;24660;43.238;26.576;2023-01-23T09:24:44;100684.97;;;5.46;100.00
38900;BME280;24660;43.238;26.576;2023-01-23T09:27:09;100695.84;;;5.40;100.00
38900;BME280;24660;43.238;26.576;2023-01-23T09:29:35;100689.72;;;5.38;100.00
38900;BME280;24660;43.238;26.576;2023-01-23T09:32:01;100702.81;;;5.42;100.00
38900;BME280;24660;43.238;26.576;2023-01-23T09:34:27;100697.50;;;5.42;100.00
38900;BME280;24660;43.238;26.576;2023-01-23T09:36:52;100697.91;;;5.31;100.00
38900;BME280;24660;43.238;26.576;2023-01-23T09:39:17;100697.78;;;5.34;100.00
38900;BME280;24660;43.238;26.576;2023-01-23T09:41:43;100692.31;;;5.39;100.00
38900;BME280;24660;43.238;26.576;2023-01-23T09:46:36;100690.22;;;5.47;100.00
38900;BME280;24660;43.238;26.576;2023-01-23T09:53:57;100698.91;;;5.29;100.00
38900;BME280;24660;43.238;26.576;2023-01-23T09:56:32;100704.25;;;5.27;100.00
38900;BME280;24660;43.238;26.576;2023-01-23T10:01:40;100689.91;;;5.33;100.00
38900;BME280;24660;43.238;26.576;2023-01-23T10:04:08;100684.00;;;5.26;100.00
38900;BME280;24660;43.238;26.576;2023-01-23T10:06:46;100692.69;;;5.30;100.00
38900;BME280;24660;43.238;26.576;2023-01-23T10:09:21;100685.72;;;5.27;100.00
38900;BME280;24660;43.238;26.576;2023-01-23T10:12:28;100680.59;;;5.23;100.00
38900;BME280;24660;43.238;26.576;2023-01-23T10:22:32;100684.72;;;5.30;100.00
38900;BME280;24660;43.238;26.576;2023-01-23T10:24:59;100691.75;;;5.31;100.00
38900;BME280;24660;43.238;26.576;2023-01-23T10:27:35;100677.09;;;5.44;100.00
38900;BME280;24660;43.238;26.576;2023-01-23T10:30:03;100687.16;;;5.36;100.00
38900;BME280;24660;43.238;26.576;2023-01-23T10:32:31;100680.06;;;5.36;100.00
38900;BME280;24660;43.238;26.576;2023-01-23T10:35:06;100673.75;;;5.39;100.00
38900;BME280;24660;43.238;26.576;2023-01-23T10:40:17;100679.47;;;5.28;100.00
38900;BME280;24660;43.238;26.576;2023-01-23T10:43:01;100677.69;;;5.29;100.00
38900;BME280;24660;43.238;26.576;2023-01-23T10:45:26;100674.84;;;5.33;100.00
38900;BME280;24660;43.238;26.576;2023-01-23T10:47:51;100673.06;;;5.34;100.00
38900;BME280;24660;43.238;26.576;2023-01-23T10:50:18;100660.13;;;5.26;100.00
38900;BME280;24660;43.238;26.576;2023-01-23T10:53:10;100663.56;;;5.28;100.00
38900;BME280;24660;43.238;26.576;2023-01-23T10:55:43;100662.44;;;5.35;100.00
38900;BME280;24660;43.238;26.576;2023-01-23T10:58:09;100668.75;;;5.31;100.00
38900;BME280;24660;43.238;26.576;2023-01-23T11:00:47;100664.31;;;5.32;100.00
38900;BME280;24660;43.238;26.576;2023-01-23T11:03:17;100655.06;;;5.42;100.00
38900;BME280;24660;43.238;26.576;2023-01-23T11:06:01;100653.53;;;5.36;100.00
38900;BME280;24660;43.238;26.576;2023-01-23T11:08:28;100650.69;;;5.41;100.00
38900;BME280;24660;43.238;26.576;2023-01-23T11:10:57;100655.13;;;5.41;100.00
38900;BME280;24660;43.238;26.576;2023-01-23T11:13:35;100653.59;;;5.35;100.00
38900;BME280;24660;43.238;26.576;2023-01-23T11:16:01;100651.00;;;5.33;100.00
38900;BME280;24660;43.238;26.576;2023-01-23T11:18:29;100655.13;;;5.41;100.00
38900;BME280;24660;43.238;26.576;2023-01-23T11:20:55;100647.53;;;5.31;100.00
38900;BME280;24660;43.238;26.576;2023-01-23T11:23:20;100644.94;;;5.30;100.00
38900;BME280;24660;43.238;26.576;2023-01-23T11:25:46;100645.91;;;5.51;100.00
38900;BME280;24660;43.238;26.576;2023-01-23T11:28:17;100646.56;;;5.56;100.00
38900;BME280;24660;43.238;26.576;2023-01-23T11:30:43;100641.75;;;5.44;100.00
38900;BME280;24660;43.238;26.576;2023-01-23T11:35:59;100642.09;;;5.34;100.00
38900;BME280;24660;43.238;26.576;2023-01-23T11:38:27;100639.47;;;5.34;100.00
38900;BME280;24660;43.238;26.576;2023-01-23T11:40:55;100649.69;;;5.44;100.00
38900;BME280;24660;43.238;26.576;2023-01-23T11:43:20;100646.34;;;5.60;100.00
38900;BME280;24660;43.238;26.576;2023-01-23T11:58:40;100643.63;;;5.62;100.00
38900;BME280;24660;43.238;26.576;2023-01-23T12:06:20;100626.94;;;5.60;100.00
38900;BME280;24660;43.238;26.576;2023-01-23T12:08:58;100641.69;;;5.45;100.00
38900;BME280;24660;43.238;26.576;2023-01-23T12:11:29;100648.16;;;5.60;100.00
38900;BME280;24660;43.238;26.576;2023-01-23T12:19:33;100661.88;;;5.49;100.00
38900;BME280;24660;43.238;26.576;2023-01-23T12:34:49;100654.88;;;5.47;100.00
38900;BME280;24660;43.238;26.576;2023-01-23T12:42:28;100654.88;;;5.47;100.00
38900;BME280;24660;43.238;26.576;2023-01-23T12:45:00;100655.38;;;5.34;100.00
38900;BME280;24660;43.238;26.576;2023-01-23T12:47:30;100664.16;;;5.36;100.00
38900;BME280;24660;43.238;26.576;2023-01-23T12:50:00;100663.44;;;5.31;100.00
38900;BME280;24660;43.238;26.576;2023-01-23T12:52:34;100662.22;;;5.40;100.00
38900;BME280;24660;43.238;26.576;2023-01-23T12:57:29;100676.28;;;5.42;100.00
38900;BME280;24660;43.238;26.576;2023-01-23T13:00:21;100687.69;;;5.44;100.00
38900;BME280;24660;43.238;26.576;2023-01-23T13:02:57;100679.66;;;5.46;100.00
38900;BME280;24660;43.238;26.576;2023-01-23T13:10:55;100673.94;;;5.34;100.00
38900;BME280;24660;43.238;26.576;2023-01-23T13:13:38;100683.13;;;5.26;100.00
38900;BME280;24660;43.238;26.576;2023-01-23T13:16:12;100678.81;;;5.23;100.00
38900;BME280;24660;43.238;26.576;2023-01-23T13:18:38;100672.59;;;5.24;100.00
38900;BME280;24660;43.238;26.576;2023-01-23T13:21:19;100685.09;;;5.21;100.00
38900;BME280;24660;43.238;26.576;2023-01-23T13:27:15;100684.19;;;5.22;100.00
38900;BME280;24660;43.238;26.576;2023-01-23T13:29:47;100685.97;;;5.21;100.00
38900;BME280;24660;43.238;26.576;2023-01-23T13:32:21;100687.69;;;5.22;100.00
38900;BME280;24660;43.238;26.576;2023-01-23T13:34:47;100666.09;;;5.10;100.00
38900;BME280;24660;43.238;26.576;2023-01-23T13:40:01;100701.13;;;4.94;100.00
38900;BME280;24660;43.238;26.576;2023-01-23T13:47:33;100712.94;;;4.86;100.00
38900;BME280;24660;43.238;26.576;2023-01-23T13:50:19;100704.97;;;4.86;100.00
38900;BME280;24660;43.238;26.576;2023-01-23T13:52:51;100717.69;;;4.76;100.00
38900;BME280;24660;43.238;26.576;2023-01-23T13:55:33;100721.75;;;4.86;100.00
38900;BME280;24660;43.238;26.576;2023-01-23T13:58:19;100722.25;;;4.72;100.00
38900;BME280;24660;43.238;26.576;2023-01-23T14:00:48;100716.88;;;4.74;100.00
38900;BME280;24660;43.238;26.576;2023-01-23T14:03:35;100727.38;;;4.77;100.00
38900;BME280;24660;43.238;26.576;2023-01-23T14:06:16;100726.41;;;4.80;100.00
38900;BME280;24660;43.238;26.576;2023-01-23T14:08:50;100728.28;;;4.76;100.00